createdAt,value
2022-08-30T00:01:57.294Z,71.36
2022-08-30T00:04:23.662Z,71.61
2022-08-30T00:06:50.060Z,71.71
2022-08-30T00:09:16.493Z,71.68
2022-08-30T00:11:42.853Z,71.71
2022-08-30T00:14:09.256Z,71.87
2022-08-30T00:16:35.674Z,71.62
2022-08-30T00:19:02.159Z,71.53
2022-08-30T00:21:28.490Z,71.79
2022-08-30T00:23:54.885Z,72.03
2022-08-30T00:26:21.250Z,71.68
2022-08-30T00:28:47.668Z,71.86
2022-08-30T00:31:15.538Z,72.08
2022-08-30T00:33:40.463Z,72.02
2022-08-30T00:36:06.949Z,72.17
2022-08-30T00:38:33.310Z,72.24
2022-08-30T00:40:59.747Z,72.57
2022-08-30T00:43:27.919Z,72.64
2022-08-30T00:45:52.575Z,72.65
2022-08-30T00:48:18.849Z,72.46
2022-08-30T00:50:45.246Z,72.13
2022-08-30T00:53:11.666Z,72.21
2022-08-30T00:55:38.830Z,72.61
2022-08-30T00:58:05.149Z,72.41
2022-08-30T01:00:30.831Z,72.49
2022-08-30T01:02:57.210Z,72.78
2022-08-30T01:05:23.637Z,72.03
2022-08-30T01:07:49.806Z,72.63
2022-08-30T01:10:16.172Z,72.61
2022-08-30T01:12:42.554Z,71.58
2022-08-30T01:15:08.913Z,70.76
2022-08-30T01:17:35.279Z,70.37
2022-08-30T01:20:01.721Z,69.76
2022-08-30T01:22:28.158Z,69.46
2022-08-30T01:24:54.522Z,69.67
2022-08-30T01:27:20.883Z,70.08
2022-08-30T01:29:47.351Z,70.22
2022-08-30T01:32:13.714Z,70.90
2022-08-30T01:34:40.107Z,70.52
2022-08-30T01:37:06.498Z,70.71
2022-08-30T01:39:32.984Z,70.49
2022-08-30T01:41:59.348Z,71.15
2022-08-30T01:44:25.717Z,71.94
2022-08-30T01:46:52.178Z,71.67
2022-08-30T01:49:27.366Z,71.38
2022-08-30T01:51:44.991Z,71.64
2022-08-30T01:54:11.374Z,71.82
2022-08-30T01:56:37.810Z,71.85
2022-08-30T01:59:04.239Z,72.42
2022-08-30T02:01:30.968Z,72.53
2022-08-30T02:03:57.092Z,72.98
2022-08-30T02:06:23.399Z,72.85
2022-08-30T02:08:49.872Z,72.73
2022-08-30T02:11:16.250Z,72.36
2022-08-30T02:13:42.615Z,71.98
2022-08-30T02:16:09.009Z,71.51
2022-08-30T02:18:35.396Z,71.00
2022-08-30T02:21:01.765Z,71.34
2022-08-30T02:23:28.266Z,71.26
2022-08-30T02:25:54.629Z,71.58
2022-08-30T02:28:21.029Z,71.96
2022-08-30T02:30:47.483Z,71.97
2022-08-30T02:33:13.848Z,72.37
2022-08-30T02:35:40.187Z,72.91
2022-08-30T02:38:06.651Z,73.08
2022-08-30T02:40:33.091Z,72.67
2022-08-30T02:42:59.377Z,72.90
2022-08-30T02:45:25.784Z,72.80
2022-08-30T02:47:52.180Z,72.93
2022-08-30T02:50:18.560Z,73.40
2022-08-30T02:52:45.293Z,73.21
2022-08-30T02:55:11.330Z,72.64
2022-08-30T02:57:37.704Z,72.41
2022-08-30T03:00:04.067Z,73.14
2022-08-30T03:02:30.477Z,74.18
2022-08-30T03:04:56.845Z,74.74
2022-08-30T03:07:23.207Z,75.26
2022-08-30T03:09:49.575Z,75.85
2022-08-30T03:12:16.048Z,76.22
2022-08-30T03:14:42.426Z,76.39
2022-08-30T03:17:12.787Z,76.89
2022-08-30T03:19:35.156Z,77.34
2022-08-30T03:22:01.632Z,77.49
2022-08-30T03:24:28.042Z,77.51
2022-08-30T03:26:54.409Z,76.77
2022-08-30T03:29:20.830Z,76.65
2022-08-30T03:31:53.098Z,76.88
2022-08-30T03:34:13.565Z,77.21
2022-08-30T03:36:39.932Z,77.13
2022-08-30T03:39:06.356Z,76.49
2022-08-30T03:41:32.789Z,76.46
2022-08-30T03:44:00.205Z,76.63
2022-08-30T03:46:26.931Z,76.95
2022-08-30T03:48:52.091Z,76.88
2022-08-30T03:51:18.454Z,75.88
2022-08-30T03:53:44.872Z,76.02
2022-08-30T03:56:11.237Z,75.61
2022-08-30T03:58:37.598Z,75.10
2022-08-30T04:01:04.104Z,75.62
2022-08-30T04:03:30.437Z,75.83
2022-08-30T04:05:56.924Z,75.86
2022-08-30T04:08:23.305Z,75.25
2022-08-30T04:10:49.688Z,75.17
2022-08-30T04:13:16.285Z,74.58
2022-08-30T04:15:42.541Z,74.95
2022-08-30T04:18:08.980Z,74.79
2022-08-30T04:20:35.364Z,74.72
2022-08-30T04:23:01.742Z,75.05
2022-08-30T04:25:28.283Z,74.90
2022-08-30T04:27:54.679Z,74.78
2022-08-30T04:30:21.136Z,74.87
2022-08-30T04:32:47.576Z,75.12
2022-08-30T04:35:14.003Z,75.81
2022-08-30T04:37:40.408Z,76.02
2022-08-30T04:40:06.823Z,75.97
2022-08-30T04:42:33.211Z,75.77
2022-08-30T04:44:59.581Z,75.64
2022-08-30T04:47:25.946Z,76.34
2022-08-30T04:49:52.335Z,76.17
2022-08-30T04:52:18.707Z,75.26
2022-08-30T04:54:45.077Z,75.11
2022-08-30T04:57:11.444Z,74.76
2022-08-30T04:59:37.934Z,74.84
2022-08-30T05:02:04.334Z,75.15
2022-08-30T05:04:30.699Z,75.36
2022-08-30T05:06:57.103Z,75.36
2022-08-30T05:09:23.553Z,75.58
2022-08-30T05:11:49.996Z,75.83
2022-08-30T05:14:16.421Z,75.97
2022-08-30T05:16:42.838Z,75.75
2022-08-30T05:19:09.198Z,75.49
2022-08-30T05:21:35.610Z,75.64
2022-08-30T05:24:01.967Z,75.38
2022-08-30T05:26:28.358Z,75.28
2022-08-30T05:28:54.821Z,75.09
2022-08-30T05:31:21.332Z,74.96
2022-08-30T05:33:47.653Z,74.47
2022-08-30T05:36:14.048Z,74.16
2022-08-30T05:38:40.439Z,74.86
2022-08-30T05:41:10.952Z,75.18
2022-08-30T05:43:33.249Z,74.90
2022-08-30T05:45:59.753Z,74.75
2022-08-30T05:48:26.184Z,74.01
2022-08-30T05:50:52.575Z,74.44
2022-08-30T05:53:18.986Z,74.44
2022-08-30T05:55:45.346Z,74.43
2022-08-30T05:58:11.827Z,73.94
2022-08-30T06:00:38.211Z,73.23
2022-08-30T06:03:04.782Z,72.62
2022-08-30T06:05:31.133Z,71.16
2022-08-30T06:07:57.644Z,68.31
2022-08-30T06:10:24.019Z,66.32
2022-08-30T06:12:50.393Z,64.20
2022-08-30T06:15:16.787Z,62.86
2022-08-30T06:17:43.275Z,61.83
2022-08-30T06:20:09.647Z,60.48
2022-08-30T06:22:36.084Z,59.54
2022-08-30T06:25:02.474Z,57.16
2022-08-30T06:27:28.907Z,57.67
2022-08-30T06:29:55.282Z,58.19
2022-08-30T06:32:21.673Z,58.41
2022-08-30T06:34:48.051Z,59.25
2022-08-30T06:37:29.527Z,60.74
2022-08-30T06:39:40.788Z,60.94
2022-08-30T06:42:07.165Z,61.15
2022-08-30T06:44:33.537Z,63.41
2022-08-30T06:46:59.927Z,63.88
2022-08-30T06:49:26.292Z,64.64
2022-08-30T06:51:52.727Z,65.76
2022-08-30T06:54:19.105Z,66.22
2022-08-30T06:57:00.376Z,66.28
2022-08-30T06:59:11.956Z,66.46
2022-08-30T07:01:38.388Z,65.52
2022-08-30T07:04:04.727Z,65.75
2022-08-30T07:06:31.097Z,65.91
2022-08-30T07:08:57.597Z,65.86
2022-08-30T07:11:26.740Z,65.44
2022-08-30T07:13:50.790Z,65.10
2022-08-30T07:16:17.196Z,64.23
2022-08-30T07:18:43.594Z,64.00
2022-08-30T07:21:10.036Z,62.80
2022-08-30T07:23:36.455Z,63.03
2022-08-30T07:26:02.892Z,63.55
2022-08-30T07:28:29.324Z,63.40
2022-08-30T07:30:55.793Z,62.66
2022-08-30T07:33:22.304Z,60.10
2022-08-30T07:35:48.833Z,57.66
2022-08-30T07:38:15.220Z,55.57
2022-08-30T07:40:41.731Z,54.94
2022-08-30T07:43:08.083Z,54.54
2022-08-30T07:45:35.397Z,52.56
2022-08-30T07:48:00.830Z,51.47
2022-08-30T07:50:27.323Z,53.27
2022-08-30T07:52:53.704Z,54.89
2022-08-30T07:55:20.089Z,56.81
2022-08-30T07:57:46.520Z,58.55
2022-08-30T08:00:12.933Z,58.84
2022-08-30T08:02:39.528Z,59.39
2022-08-30T08:05:05.880Z,60.30
2022-08-30T08:07:32.356Z,60.59
2022-08-30T08:09:58.713Z,61.29
2022-08-30T08:12:25.198Z,61.30
2022-08-30T08:14:51.663Z,61.39
2022-08-30T08:17:18.019Z,62.00
2022-08-30T08:19:44.397Z,62.44
2022-08-30T08:22:25.999Z,62.23
2022-08-30T08:24:37.188Z,62.77
2022-08-30T08:27:03.555Z,62.29
2022-08-30T08:29:29.938Z,62.46
2022-08-30T08:31:56.351Z,63.43
2022-08-30T08:34:22.721Z,64.73
2022-08-30T08:36:49.096Z,64.02
2022-08-30T08:39:15.467Z,64.72
2022-08-30T08:41:41.869Z,65.38
2022-08-30T08:44:08.247Z,64.40
2022-08-30T08:46:34.681Z,63.39
2022-08-30T08:49:01.020Z,63.13
2022-08-30T08:51:27.413Z,63.84
2022-08-30T08:53:53.869Z,64.03
2022-08-30T08:56:20.298Z,63.99
2022-08-30T08:58:46.666Z,64.17
2022-08-30T09:01:13.128Z,63.83
2022-08-30T09:03:39.497Z,63.63
2022-08-30T09:06:05.926Z,63.58
2022-08-30T09:08:32.305Z,63.43
2022-08-30T09:10:58.671Z,63.46
2022-08-30T09:13:25.057Z,63.29
2022-08-30T09:15:55.071Z,62.72
2022-08-30T09:18:19.221Z,62.89
2022-08-30T09:20:44.164Z,63.18
2022-08-30T09:23:10.545Z,62.72
2022-08-30T09:25:41.654Z,62.45
2022-08-30T09:28:03.418Z,61.25
2022-08-30T09:30:29.811Z,60.59
2022-08-30T09:32:56.208Z,60.40
2022-08-30T09:35:22.584Z,60.25
2022-08-30T09:37:48.951Z,59.88
2022-08-30T09:40:15.453Z,58.70
2022-08-30T09:42:41.742Z,56.33
2022-08-30T09:45:08.122Z,54.81
2022-08-30T09:47:34.494Z,55.19
2022-08-30T09:50:00.855Z,55.57
2022-08-30T09:52:27.337Z,57.33
2022-08-30T09:54:53.768Z,57.46
2022-08-30T09:57:20.139Z,55.87
2022-08-30T09:59:46.644Z,55.70
2022-08-30T10:02:13.004Z,56.12
2022-08-30T10:04:39.319Z,56.25
2022-08-30T10:07:05.690Z,56.46
2022-08-30T10:09:32.072Z,56.12
2022-08-30T10:11:58.446Z,54.39
2022-08-30T10:14:24.873Z,54.24
2022-08-30T10:16:51.363Z,53.02
2022-08-30T10:19:17.802Z,54.02
2022-08-30T10:21:44.252Z,53.82
2022-08-30T10:24:10.600Z,53.82
2022-08-30T10:26:37.003Z,53.84
2022-08-30T10:29:03.388Z,52.98
2022-08-30T10:31:29.790Z,52.06
2022-08-30T10:33:56.175Z,51.35
2022-08-30T10:36:22.541Z,50.75
2022-08-30T10:38:48.940Z,49.16
2022-08-30T10:41:15.385Z,46.32
2022-08-30T10:43:41.747Z,43.85
2022-08-30T10:46:08.136Z,44.10
2022-08-30T10:48:34.573Z,44.26
2022-08-30T10:51:00.945Z,44.85
2022-08-30T10:53:27.346Z,43.93
2022-08-30T10:55:53.730Z,43.10
2022-08-30T10:58:20.113Z,42.80
2022-08-30T11:00:46.521Z,43.40
2022-08-30T11:03:12.968Z,44.62
2022-08-30T11:05:41.772Z,44.91
2022-08-30T11:08:05.637Z,46.54
2022-08-30T11:10:32.018Z,47.14
2022-08-30T11:12:58.397Z,46.84
2022-08-30T11:15:24.830Z,47.62
2022-08-30T11:17:51.202Z,47.53
2022-08-30T11:20:17.587Z,46.12
2022-08-30T11:22:43.985Z,44.92
2022-08-30T11:25:10.603Z,44.94
2022-08-30T11:27:36.831Z,44.25
2022-08-30T11:30:03.332Z,45.07
2022-08-30T11:32:29.773Z,44.36
2022-08-30T11:34:56.127Z,45.04
2022-08-30T11:37:24.930Z,44.84
2022-08-30T11:39:51.316Z,45.47
2022-08-30T11:42:17.744Z,46.09
2022-08-30T11:44:44.155Z,46.02
2022-08-30T11:47:10.539Z,45.91
2022-08-30T11:49:36.920Z,44.82
2022-08-30T11:54:29.758Z,46.89
2022-08-30T11:56:56.436Z,47.08
2022-08-30T11:59:22.513Z,46.86
2022-08-30T12:01:55.051Z,46.47
2022-08-30T12:04:15.589Z,45.50
2022-08-30T12:06:41.814Z,44.14
2022-08-30T12:09:08.555Z,41.78
2022-08-30T12:11:34.577Z,41.47
2022-08-30T12:14:01.067Z,41.47
2022-08-30T12:16:27.467Z,42.23
2022-08-30T12:18:53.835Z,42.61
2022-08-30T12:21:20.262Z,41.17
2022-08-30T12:23:46.648Z,40.65
2022-08-30T12:26:13.134Z,41.44
2022-08-30T12:28:42.171Z,43.05
2022-08-30T12:31:05.863Z,43.58
2022-08-30T12:33:36.613Z,42.73
2022-08-30T12:35:58.617Z,41.85
2022-08-30T12:38:27.566Z,40.85
2022-08-30T12:40:51.421Z,41.52
2022-08-30T12:43:17.853Z,41.77
2022-08-30T12:45:44.319Z,40.77
2022-08-30T12:48:10.681Z,40.07
2022-08-30T12:50:37.024Z,39.33
2022-08-30T12:53:03.426Z,39.86
2022-08-30T12:55:29.810Z,39.35
2022-08-30T12:58:00.677Z,40.05
2022-08-30T13:00:22.598Z,41.05
2022-08-30T13:02:48.966Z,41.20
2022-08-30T13:05:15.335Z,40.92
2022-08-30T13:07:41.728Z,40.60
2022-08-30T13:10:08.122Z,41.43
2022-08-30T13:12:34.503Z,42.34
2022-08-30T13:15:00.892Z,42.80
2022-08-30T13:17:27.285Z,44.07
2022-08-30T13:19:53.680Z,44.24
2022-08-30T13:22:20.333Z,44.43
2022-08-30T13:24:46.561Z,44.40
2022-08-30T13:27:12.951Z,45.03
2022-08-30T13:29:39.344Z,45.62
2022-08-30T13:32:05.731Z,45.20
2022-08-30T13:34:32.102Z,44.94
2022-08-30T13:36:58.522Z,45.29
2022-08-30T13:39:24.886Z,45.63
2022-08-30T13:41:51.594Z,46.37
2022-08-30T13:44:17.758Z,46.60
2022-08-30T13:46:44.838Z,46.42
2022-08-30T13:49:43.084Z,45.88
2022-08-30T13:51:36.915Z,45.63
2022-08-30T13:54:03.281Z,45.37
2022-08-30T13:56:29.805Z,46.27
2022-08-30T13:58:56.091Z,46.14
2022-08-30T14:01:22.546Z,46.72
2022-08-30T14:06:32.239Z,46.18
2022-08-30T14:08:46.396Z,46.59
2022-08-30T14:11:08.115Z,45.91
2022-08-30T14:13:34.511Z,46.54
2022-08-30T14:18:27.347Z,45.64
2022-08-30T14:20:53.738Z,45.50
2022-08-30T14:23:20.117Z,45.18
2022-08-30T14:25:46.546Z,44.30
2022-08-30T14:28:12.972Z,43.50
2022-08-30T14:30:39.288Z,43.71
2022-08-30T14:33:05.681Z,43.93
2022-08-30T14:35:32.064Z,43.74
2022-08-30T14:37:58.430Z,44.03
2022-08-30T14:40:24.943Z,44.04
2022-08-30T14:42:51.333Z,44.25
2022-08-30T14:45:17.696Z,44.31
2022-08-30T14:47:44.288Z,44.52
2022-08-30T14:50:10.650Z,44.57
2022-08-30T14:52:37.068Z,44.26
2022-08-30T14:55:08.965Z,44.44
2022-08-30T14:57:29.833Z,44.48
2022-08-30T14:59:56.272Z,44.49
2022-08-30T15:02:26.560Z,44.30
2022-08-30T15:04:49.523Z,44.50
2022-08-30T15:07:15.572Z,44.15
2022-08-30T15:09:41.965Z,44.59
2022-08-30T15:12:08.422Z,44.50
2022-08-30T15:14:34.861Z,44.41
2022-08-30T15:17:01.263Z,44.91
2022-08-30T15:19:27.644Z,45.16
2022-08-30T15:21:54.023Z,45.09
2022-08-30T15:24:20.382Z,45.18
2022-08-30T15:26:46.749Z,44.59
2022-08-30T15:29:13.146Z,45.36
2022-08-30T15:31:39.683Z,45.43
2022-08-30T15:34:05.949Z,45.10
2022-08-30T15:36:32.317Z,45.36
2022-08-30T15:38:58.686Z,45.02
2022-08-30T15:41:25.565Z,45.02
2022-08-30T15:43:51.958Z,44.82
2022-08-30T15:46:18.365Z,45.43
2022-08-30T15:48:45.689Z,45.02
2022-08-30T15:51:11.357Z,45.38
2022-08-30T15:53:37.728Z,44.89
2022-08-30T15:56:04.092Z,45.24
2022-08-30T15:58:30.477Z,45.38
2022-08-30T16:00:56.941Z,45.08
2022-08-30T16:03:23.240Z,44.88
2022-08-30T16:05:49.632Z,44.99
2022-08-30T16:08:16.050Z,44.57
2022-08-30T16:10:43.320Z,44.52
2022-08-30T16:13:08.761Z,44.41
2022-08-30T16:15:35.273Z,44.75
2022-08-30T16:18:01.658Z,45.26
2022-08-30T16:20:28.026Z,45.31
2022-08-30T16:22:54.419Z,45.24
2022-08-30T16:25:20.806Z,45.60
2022-08-30T16:27:47.189Z,45.76
2022-08-30T16:30:13.558Z,46.01
2022-08-30T16:32:40.000Z,46.11
2022-08-30T16:35:06.525Z,46.30
2022-08-30T16:37:32.848Z,46.27
2022-08-30T16:39:59.357Z,47.03
2022-08-30T16:42:25.704Z,47.20
2022-08-30T16:44:52.513Z,47.56
2022-08-30T16:47:18.540Z,47.40
2022-08-30T16:49:44.858Z,47.02
2022-08-30T16:52:11.283Z,46.77
2022-08-30T16:54:37.665Z,47.08
2022-08-30T16:57:04.062Z,47.35
2022-08-30T16:59:30.434Z,47.65
2022-08-30T17:01:56.885Z,47.75
2022-08-30T17:04:23.230Z,48.20
2022-08-30T17:06:50.065Z,49.10
2022-08-30T17:09:16.047Z,48.92
2022-08-30T17:11:42.411Z,49.17
2022-08-30T17:14:08.781Z,49.69
2022-08-30T17:16:35.184Z,50.39
2022-08-30T17:19:01.534Z,50.39
2022-08-30T17:21:27.913Z,50.34
2022-08-30T17:23:54.285Z,50.67
2022-08-30T17:26:20.654Z,51.25
2022-08-30T17:28:47.142Z,51.56
2022-08-30T17:31:14.899Z,51.12
2022-08-30T17:33:42.975Z,51.58
2022-08-30T17:36:09.360Z,51.79
2022-08-30T17:38:35.746Z,52.00
2022-08-30T17:41:02.131Z,52.05
2022-08-30T17:43:28.520Z,52.35
2022-08-30T17:45:54.927Z,52.92
2022-08-30T17:48:21.292Z,52.98
2022-08-30T17:50:47.682Z,53.27
2022-08-30T17:53:14.057Z,53.31
2022-08-30T17:55:40.442Z,53.62
2022-08-30T17:58:06.843Z,53.72
2022-08-30T18:00:33.209Z,53.95
2022-08-30T18:02:59.627Z,54.14
2022-08-30T18:05:26.034Z,54.20
2022-08-30T18:07:52.431Z,54.52
2022-08-30T18:10:18.795Z,54.93
2022-08-30T18:12:45.292Z,55.48
2022-08-30T18:15:12.650Z,55.92
2022-08-30T18:17:38.073Z,56.35
2022-08-30T18:20:04.476Z,56.51
2022-08-30T18:22:30.866Z,57.02
2022-08-30T18:25:02.141Z,57.47
2022-08-30T18:27:23.915Z,57.83
2022-08-30T18:29:50.034Z,57.79
2022-08-30T18:32:16.423Z,57.77
2022-08-30T18:34:42.865Z,58.35
2022-08-30T18:37:11.534Z,58.61
2022-08-30T18:39:35.633Z,58.69
2022-08-30T18:42:02.005Z,58.76
2022-08-30T18:44:29.233Z,58.94
2022-08-30T18:46:56.420Z,59.03
2022-08-30T18:49:21.165Z,58.94
2022-08-30T18:51:47.482Z,59.24
2022-08-30T18:54:13.884Z,59.56
2022-08-30T18:56:40.370Z,59.46
2022-08-30T18:59:09.497Z,59.68
2022-08-30T19:01:33.225Z,59.57
2022-08-30T19:03:59.526Z,59.55
2022-08-30T19:06:25.928Z,59.41
2022-08-30T19:08:52.337Z,59.88
2022-08-30T19:11:18.725Z,60.21
2022-08-30T19:13:45.091Z,60.62
2022-08-30T19:16:12.218Z,60.65
2022-08-30T19:18:37.960Z,60.23
2022-08-30T19:21:04.473Z,60.22
2022-08-30T19:23:34.222Z,60.16
2022-08-30T19:25:57.161Z,60.61
2022-08-30T19:28:23.528Z,60.68
2022-08-30T19:30:49.945Z,60.76
2022-08-30T19:33:16.335Z,61.16
2022-08-30T19:35:43.553Z,61.40
2022-08-30T19:38:09.151Z,61.58
2022-08-30T19:40:35.529Z,61.52
2022-08-30T19:43:01.893Z,61.85
2022-08-30T19:45:28.263Z,61.85
2022-08-30T19:47:54.633Z,62.20
2022-08-30T19:50:21.071Z,61.97
2022-08-30T19:52:53.298Z,61.96
2022-08-30T19:55:13.852Z,62.29
2022-08-30T19:57:40.242Z,62.36
2022-08-30T20:00:06.709Z,62.37
2022-08-30T20:02:33.094Z,63.06
2022-08-30T20:04:59.461Z,62.95
2022-08-30T20:07:26.243Z,62.86
2022-08-30T20:09:52.277Z,62.44
2022-08-30T20:12:18.675Z,62.66
2022-08-30T20:14:45.208Z,63.31
2022-08-30T20:17:12.129Z,63.94
2022-08-30T20:19:38.069Z,64.27
2022-08-30T20:22:08.048Z,65.07
2022-08-30T20:24:31.014Z,65.30
2022-08-30T20:26:57.262Z,65.21
2022-08-30T20:29:23.626Z,65.04
2022-08-30T20:31:50.031Z,64.68
2022-08-30T20:34:16.467Z,64.92
2022-08-30T20:36:42.852Z,64.94
2022-08-30T20:39:09.331Z,65.33
2022-08-30T20:41:35.692Z,65.14
2022-08-30T20:44:02.096Z,65.16
2022-08-30T20:46:33.410Z,65.50
2022-08-30T20:48:54.884Z,65.55
2022-08-30T20:51:21.291Z,65.62
2022-08-30T20:53:47.728Z,65.52
2022-08-30T20:56:14.108Z,65.88
2022-08-30T20:58:40.595Z,66.08
2022-08-30T21:01:07.002Z,66.30
2022-08-30T21:03:33.357Z,66.26
2022-08-30T21:05:59.742Z,66.41
2022-08-30T21:08:26.224Z,66.66
2022-08-30T21:10:52.599Z,66.56
2022-08-30T21:13:18.963Z,66.37
2022-08-30T21:15:45.347Z,65.64
2022-08-30T21:18:11.726Z,65.92
2022-08-30T21:20:38.182Z,65.70
2022-08-30T21:23:04.559Z,65.47
2022-08-30T21:25:30.946Z,65.29
2022-08-30T21:27:57.378Z,65.67
2022-08-30T21:30:23.743Z,66.04
2022-08-30T21:32:50.161Z,66.04
2022-08-30T21:35:16.527Z,66.04
2022-08-30T21:37:42.939Z,66.09
2022-08-30T21:40:09.367Z,66.46
2022-08-30T21:42:35.671Z,65.97
2022-08-30T21:45:02.106Z,64.88
2022-08-30T21:47:28.461Z,65.45
2022-08-30T21:49:54.866Z,65.51
2022-08-30T21:52:21.299Z,65.64
2022-08-30T21:54:47.666Z,65.71
2022-08-30T21:57:14.062Z,66.29
2022-08-30T21:59:40.498Z,66.63
2022-08-30T22:02:06.883Z,67.04
2022-08-30T22:04:33.264Z,67.41
2022-08-30T22:06:59.648Z,67.79
2022-08-30T22:09:26.129Z,67.94
2022-08-30T22:11:52.495Z,68.10
2022-08-30T22:14:18.866Z,68.20
2022-08-30T22:16:45.310Z,68.33
2022-08-30T22:19:11.654Z,68.58
2022-08-30T22:21:38.039Z,68.90
2022-08-30T22:24:04.402Z,69.30
2022-08-30T22:26:30.786Z,70.18
2022-08-30T22:28:57.154Z,70.49
2022-08-30T22:31:23.586Z,70.97
2022-08-30T22:33:49.943Z,71.13
2022-08-30T22:36:16.323Z,71.37
2022-08-30T22:38:42.810Z,71.15
2022-08-30T22:41:09.269Z,70.99
2022-08-30T22:43:35.644Z,70.55
2022-08-30T22:46:02.068Z,69.59
2022-08-30T22:48:28.374Z,68.96
2022-08-30T22:50:54.760Z,69.28
2022-08-30T22:53:21.120Z,69.51
2022-08-30T22:55:49.915Z,69.28
2022-08-30T22:58:16.285Z,69.44
2022-08-30T23:00:42.895Z,69.46
2022-08-30T23:03:09.193Z,69.36
2022-08-30T23:05:35.554Z,69.06
2022-08-30T23:08:02.436Z,68.78
2022-08-30T23:10:28.857Z,68.53
2022-08-30T23:12:55.236Z,68.56
2022-08-30T23:15:21.599Z,68.50
2022-08-30T23:17:47.974Z,68.50
2022-08-30T23:20:14.376Z,68.30
2022-08-30T23:22:40.739Z,68.37
2022-08-30T23:25:15.819Z,68.25
2022-08-30T23:27:33.523Z,68.57
2022-08-30T23:29:59.906Z,68.72
2022-08-30T23:32:26.270Z,68.40
2022-08-30T23:34:52.716Z,68.25
2022-08-30T23:37:19.080Z,68.32
2022-08-30T23:39:45.467Z,67.97
2022-08-30T23:42:11.913Z,67.92
2022-08-30T23:44:38.345Z,68.15
2022-08-30T23:47:04.738Z,68.44
2022-08-30T23:49:31.096Z,68.53
2022-08-30T23:51:57.494Z,69.07
2022-08-30T23:54:23.974Z,69.73
2022-08-30T23:56:50.343Z,69.40
2022-08-30T23:59:16.795Z,69.82
